Terminal Aerodrome Forecast
Issued by NWS Sterling, VA

Current Version | Previous Version | Graphics & Text | Print | Product List | Glossary On
Versions: 1 2 3 4 5 6 7 8 9 10 11 12 13 14 15 16 17 18 19 20
000
FTUS41 KLWX 241100
TAFIAD
TAF
KIAD 241137Z 2412/2518 00000KT 1SM -RA BR OVC003
     FM241400 13006KT 1SM -RA BR OVC003 WS020/19035KT
     FM241700 17007KT 1SM RA OVC003 WS020/19045KT
     FM241900 18008KT 2SM RA OVC008 WS020/19045KT
     FM242200 19012KT 3SM -SHRA OVC010
     FM250800 28012KT P6SM OVC050
     FM251100 28010KT P6SM SCT200
     FM251500 28015G28KT P6SM SCT045=

USA.gov is the U.S. government's official web portal to all federal, state and local government web resources and services.